createdAt,value
2016-03-12T12:37:22.848Z,964.28
2016-03-12T12:38:38.101Z,964.32
2016-03-12T12:40:18.040Z,964.28
2016-03-12T12:42:28.471Z,964.25
2016-03-12T12:46:11.448Z,964.25
2016-03-12T12:48:05.406Z,964.24
2016-03-12T12:49:50.662Z,964.34
2016-03-12T12:50:50.883Z,964.3
2016-03-12T12:51:50.730Z,964.33
2016-03-12T12:52:52.842Z,964.27
2016-03-12T12:53:50.719Z,964.29
2016-03-12T12:54:50.613Z,964.26
2016-03-12T12:55:50.772Z,964.31
2016-03-12T12:56:50.744Z,964.27
2016-03-12T18:37:21.223Z,965.56
2016-03-12T18:38:21.507Z,965.55
2016-03-12T18:39:21.102Z,965.55
2016-03-12T18:40:21.075Z,965.61
2016-03-12T18:41:21.624Z,965.61
2016-03-12T18:42:21.080Z,965.65
2016-03-12T18:43:21.052Z,965.62
2016-03-12T18:44:21.038Z,965.62
2016-03-12T18:45:21.057Z,965.63
2016-03-12T18:46:21.044Z,965.69
2016-03-12T18:47:21.015Z,965.66
2016-03-12T18:48:20.877Z,965.7
2016-03-12T18:49:20.974Z,965.7
2016-03-12T18:51:20.933Z,965.74
2016-03-12T18:52:20.920Z,965.74
2016-03-12T18:53:20.907Z,965.72
2016-03-12T18:54:20.909Z,965.74
2016-03-12T18:55:20.974Z,965.74
2016-03-12T18:56:20.931Z,965.73
2016-03-12T18:57:20.855Z,965.74
2016-03-12T18:58:20.889Z,965.74
2016-03-12T18:59:20.844Z,965.74
2016-03-12T19:00:20.831Z,965.73
2016-03-12T19:01:20.803Z,965.79
2016-03-12T19:02:20.806Z,965.75
2016-03-12T19:03:20.809Z,965.73
2016-03-12T19:04:20.811Z,965.79
2016-03-12T19:05:20.814Z,965.82
2016-03-12T19:06:20.738Z,965.79
2016-03-12T19:07:20.741Z,965.82
2016-03-12T19:08:20.759Z,965.87
2016-03-12T19:09:20.716Z,965.85
2016-03-12T19:10:20.733Z,965.85
2016-03-12T19:11:20.689Z,965.82
2016-03-12T19:12:20.645Z,965.86
2016-03-12T19:13:20.695Z,965.85
2016-03-12T19:14:20.619Z,965.8
2016-03-12T19:15:20.669Z,965.86
2016-03-12T19:16:20.594Z,965.92
2016-03-12T19:17:20.659Z,965.95
2016-03-12T19:18:20.615Z,965.92
2016-03-12T19:19:20.571Z,965.95
2016-03-12T19:20:20.557Z,965.93
2016-03-12T19:21:20.544Z,965.98
2016-03-12T19:23:20.534Z,965.96
2016-03-12T19:24:20.490Z,965.97
2016-03-12T19:25:20.524Z,966.01
2016-03-12T19:26:20.496Z,965.95
2016-03-12T19:27:20.498Z,965.98
2016-03-12T19:28:20.532Z,965.96
2016-03-12T19:29:20.426Z,965.98
2016-03-12T19:30:20.475Z,966.05
2016-03-12T19:31:20.400Z,966.01
2016-03-12T19:32:20.387Z,966
2016-03-12T19:33:20.358Z,966.06
2016-03-12T19:35:20.457Z,966.08
2016-03-12T19:36:20.366Z,966.08
2016-03-12T19:37:20.384Z,966.07
2016-03-12T19:38:20.340Z,966.05
2016-03-12T19:39:20.405Z,966.11
2016-03-12T19:40:20.330Z,966.1
2016-03-12T19:41:20.270Z,966.12
2016-03-12T19:42:20.257Z,966.14
2016-03-12T19:43:20.244Z,966.19
2016-03-12T19:44:20.263Z,966.22
2016-03-12T19:45:20.250Z,966.17
2016-03-12T19:46:20.236Z,966.14
2016-03-12T19:47:20.224Z,966.13
2016-03-12T19:48:20.196Z,966.18
2016-03-12T19:49:20.198Z,966.15
2016-03-12T19:50:20.169Z,966.15
2016-03-12T19:51:20.125Z,966.2
2016-03-12T19:52:20.112Z,966.22
2016-03-12T19:53:20.130Z,966.26
2016-03-12T19:54:20.165Z,966.19
2016-03-12T19:55:20.104Z,966.22
2016-03-12T19:56:20.061Z,966.16
2016-03-12T19:57:20.049Z,966.2
2016-03-12T19:58:20.035Z,966.19
